createdAt,value
2022-11-29T00:01:28.701Z,75.63
2022-11-29T00:04:30.129Z,74.77
2022-11-29T00:07:31.568Z,74.79
2022-11-29T00:10:36.847Z,75.38
2022-11-29T00:13:38.399Z,74.55
2022-11-29T00:16:41.074Z,74.21
2022-11-29T00:19:42.606Z,74.13
2022-11-29T00:22:44.048Z,73.66
2022-11-29T00:25:45.511Z,74.02
2022-11-29T00:28:46.999Z,73.36
2022-11-29T00:31:48.408Z,73.53
2022-11-29T00:34:49.781Z,73.72
2022-11-29T00:37:51.162Z,73.81
2022-11-29T00:40:52.832Z,74.64
2022-11-29T00:43:54.608Z,73.96
2022-11-29T00:46:56.022Z,74.73
2022-11-29T00:49:57.439Z,74.21
2022-11-29T00:52:58.822Z,74.01
2022-11-29T00:56:00.507Z,74.02
2022-11-29T00:59:01.934Z,73.89
2022-11-29T01:02:03.606Z,73.38
2022-11-29T01:05:05.414Z,73.43
2022-11-29T01:08:06.924Z,73.25
2022-11-29T01:11:13.062Z,73.28
2022-11-29T01:14:14.528Z,73.15
2022-11-29T01:17:15.978Z,73.39
2022-11-29T01:20:17.470Z,73.26
2022-11-29T01:23:18.874Z,73.85
2022-11-29T01:26:26.032Z,74.61
2022-11-29T01:29:27.407Z,74.79
2022-11-29T01:32:28.872Z,74.23
2022-11-29T01:35:30.277Z,73.76
2022-11-29T01:38:31.927Z,74.32
2022-11-29T01:41:35.355Z,73.91
2022-11-29T01:44:36.683Z,74.08
2022-11-29T01:47:43.676Z,73.70
2022-11-29T01:50:45.214Z,74.30
2022-11-29T01:53:47.007Z,74.48
2022-11-29T01:56:50.615Z,74.55
2022-11-29T01:59:58.020Z,73.69
2022-11-29T02:03:12.317Z,73.83
2022-11-29T02:06:15.688Z,73.81
2022-11-29T02:09:22.629Z,73.41
2022-11-29T02:12:45.980Z,73.43
2022-11-29T02:16:15.723Z,73.18
2022-11-29T02:19:53.291Z,73.19
2022-11-29T02:23:23.383Z,73.50
2022-11-29T02:26:43.482Z,73.40
2022-11-29T02:30:29.088Z,73.34
2022-11-29T02:33:52.256Z,73.23
2022-11-29T02:37:22.517Z,73.32
2022-11-29T02:41:01.524Z,73.80
2022-11-29T02:44:26.899Z,74.87
2022-11-29T02:47:53.906Z,73.83
2022-11-29T02:51:05.411Z,73.73
2022-11-29T02:54:20.400Z,72.79
2022-11-29T02:57:36.575Z,73.29
2022-11-29T03:00:47.981Z,73.13
2022-11-29T03:04:15.217Z,72.95
2022-11-29T03:07:28.728Z,73.29
2022-11-29T03:10:48.162Z,73.55
2022-11-29T03:14:21.798Z,73.82
2022-11-29T03:17:48.285Z,73.38
2022-11-29T03:21:05.128Z,73.51
2022-11-29T03:24:16.020Z,73.50
2022-11-29T03:27:28.465Z,74.33
2022-11-29T03:30:32.235Z,73.88
2022-11-29T03:33:47.096Z,73.13
2022-11-29T03:37:19.907Z,73.47
2022-11-29T03:40:25.251Z,72.98
2022-11-29T03:43:36.701Z,73.28
2022-11-29T03:46:47.739Z,73.06
2022-11-29T03:49:59.543Z,73.17
2022-11-29T03:53:12.737Z,73.65
2022-11-29T03:56:31.906Z,73.21
2022-11-29T03:59:45.587Z,73.48
2022-11-29T04:02:56.471Z,73.80
2022-11-29T04:06:18.063Z,73.13
2022-11-29T04:09:46.472Z,73.40
2022-11-29T04:13:12.670Z,73.21
2022-11-29T04:16:39.012Z,72.50
2022-11-29T04:20:18.104Z,72.73
2022-11-29T04:23:38.729Z,72.58
2022-11-29T04:27:01.673Z,72.66
2022-11-29T04:30:18.297Z,72.99
2022-11-29T04:33:32.726Z,73.00
2022-11-29T04:36:34.057Z,73.38
2022-11-29T04:39:51.542Z,73.42
2022-11-29T04:43:11.404Z,72.89
2022-11-29T04:46:54.342Z,73.05
2022-11-29T04:50:02.765Z,72.99
2022-11-29T04:53:23.891Z,73.53
2022-11-29T04:56:46.503Z,73.14
2022-11-29T04:59:52.499Z,73.27
2022-11-29T05:03:38.731Z,72.83
2022-11-29T05:07:02.126Z,73.25
2022-11-29T05:10:17.891Z,73.65
2022-11-29T05:13:38.915Z,73.40
2022-11-29T05:17:04.205Z,73.45
2022-11-29T05:20:27.065Z,73.36
2022-11-29T05:23:54.772Z,73.42
2022-11-29T05:27:35.226Z,75.49
2022-11-29T05:31:06.429Z,74.37
2022-11-29T05:34:34.914Z,73.67
2022-11-29T05:37:50.385Z,73.42
2022-11-29T05:41:29.265Z,73.89
2022-11-29T05:44:38.481Z,73.88
2022-11-29T05:47:48.932Z,74.25
2022-11-29T05:51:06.235Z,74.63
2022-11-29T05:54:13.801Z,73.79
2022-11-29T05:57:49.036Z,73.49
2022-11-29T06:01:27.948Z,73.55
2022-11-29T06:04:41.183Z,73.24
2022-11-29T06:08:08.051Z,73.89
2022-11-29T06:11:24.067Z,74.73
2022-11-29T06:14:47.237Z,74.34
2022-11-29T06:18:07.010Z,73.37
2022-11-29T06:21:46.252Z,73.40
2022-11-29T06:25:18.528Z,73.92
2022-11-29T06:28:45.428Z,73.62
2022-11-29T06:31:53.256Z,73.33
2022-11-29T06:35:03.539Z,73.69
2022-11-29T06:38:20.493Z,73.63
2022-11-29T06:41:23.690Z,73.57
2022-11-29T06:44:25.378Z,74.30
2022-11-29T06:47:42.470Z,74.26
2022-11-29T06:50:56.963Z,74.37
2022-11-29T06:54:36.111Z,74.10
2022-11-29T06:57:49.287Z,73.68
2022-11-29T07:01:00.869Z,73.96
2022-11-29T07:04:15.342Z,73.46
2022-11-29T07:07:22.503Z,73.67
2022-11-29T07:10:24.726Z,73.46
2022-11-29T07:13:26.396Z,74.09
2022-11-29T07:16:33.917Z,74.00
2022-11-29T07:19:53.762Z,73.60
2022-11-29T07:23:21.206Z,73.56
2022-11-29T07:26:33.920Z,74.19
2022-11-29T07:29:41.353Z,75.74
2022-11-29T07:33:21.559Z,74.79
2022-11-29T07:36:45.081Z,74.08
2022-11-29T07:40:03.358Z,74.28
2022-11-29T07:43:20.212Z,74.23
2022-11-29T07:46:21.651Z,75.79
2022-11-29T07:49:23.074Z,74.96
2022-11-29T07:52:26.867Z,74.78
2022-11-29T07:55:29.568Z,74.16
2022-11-29T07:58:31.042Z,74.65
2022-11-29T08:01:32.510Z,74.27
2022-11-29T08:04:34.054Z,74.29
2022-11-29T08:07:40.508Z,74.30
2022-11-29T08:10:41.968Z,74.35
2022-11-29T08:13:43.360Z,74.46
2022-11-29T08:16:44.780Z,74.49
2022-11-29T08:19:46.300Z,74.24
2022-11-29T08:22:58.944Z,74.10
2022-11-29T08:26:00.835Z,74.16
2022-11-29T08:29:02.410Z,74.00
2022-11-29T08:32:04.215Z,73.65
2022-11-29T08:35:05.860Z,73.59
2022-11-29T08:38:07.255Z,73.35
2022-11-29T08:41:11.462Z,73.48
2022-11-29T08:44:13.044Z,74.67
2022-11-29T08:47:32.687Z,74.97
2022-11-29T08:50:34.241Z,74.29
2022-11-29T08:53:41.461Z,74.17
2022-11-29T08:57:30.965Z,74.37
2022-11-29T09:00:05.386Z,73.96
2022-11-29T09:03:26.250Z,73.83
2022-11-29T09:06:33.572Z,73.45
2022-11-29T09:09:34.965Z,72.93
2022-11-29T09:12:37.210Z,73.33
2022-11-29T09:15:39.478Z,73.40
2022-11-29T09:18:43.172Z,73.21
2022-11-29T09:21:47.496Z,73.51
2022-11-29T09:24:48.987Z,73.42
2022-11-29T09:27:50.397Z,73.11
2022-11-29T09:30:51.771Z,73.08
2022-11-29T09:33:54.316Z,73.50
2022-11-29T09:36:55.788Z,73.87
2022-11-29T09:39:57.221Z,73.64
2022-11-29T09:43:04.816Z,73.38
2022-11-29T09:46:18.176Z,73.33
2022-11-29T09:49:48.291Z,73.40
2022-11-29T09:53:07.575Z,73.97
2022-11-29T09:56:21.951Z,74.38
2022-11-29T09:59:29.031Z,74.14
2022-11-29T10:02:45.216Z,73.87
2022-11-29T10:05:52.298Z,73.71
2022-11-29T10:08:55.971Z,73.80
2022-11-29T10:12:07.225Z,73.78
2022-11-29T10:15:14.159Z,73.49
2022-11-29T10:18:38.396Z,73.62
2022-11-29T10:21:43.178Z,73.30
2022-11-29T10:24:51.670Z,73.35
2022-11-29T10:27:54.344Z,73.61
2022-11-29T10:30:58.883Z,74.01
2022-11-29T10:34:07.964Z,73.76
2022-11-29T10:37:21.840Z,74.04
2022-11-29T10:40:33.437Z,74.65
2022-11-29T10:43:37.236Z,74.41
2022-11-29T10:46:38.800Z,73.82
2022-11-29T10:49:40.342Z,74.23
2022-11-29T10:52:41.783Z,74.22
2022-11-29T10:55:45.546Z,74.22
2022-11-29T10:59:03.186Z,73.72
2022-11-29T11:02:06.565Z,74.24
2022-11-29T11:05:18.655Z,73.92
2022-11-29T11:08:20.402Z,74.32
2022-11-29T11:11:31.228Z,74.02
2022-11-29T11:14:37.464Z,74.27
2022-11-29T11:17:42.084Z,74.54
2022-11-29T11:20:51.285Z,74.72
2022-11-29T11:23:59.493Z,75.50
2022-11-29T11:27:01.499Z,75.39
2022-11-29T11:30:06.163Z,75.81
2022-11-29T11:33:20.049Z,75.93
2022-11-29T11:36:23.063Z,75.57
2022-11-29T11:39:27.809Z,75.60
2022-11-29T11:42:38.265Z,75.05
2022-11-29T11:45:39.708Z,75.15
2022-11-29T11:48:42.359Z,75.62
2022-11-29T11:51:43.978Z,75.29
2022-11-29T11:54:49.221Z,75.10
2022-11-29T11:58:12.031Z,75.12
2022-11-29T12:01:17.244Z,74.84
2022-11-29T12:04:25.040Z,75.10
2022-11-29T12:08:06.719Z,75.17
2022-11-29T12:11:07.699Z,74.88
2022-11-29T12:14:20.300Z,74.62
2022-11-29T12:17:21.647Z,74.18
2022-11-29T12:20:38.656Z,74.04
2022-11-29T12:23:59.850Z,73.38
2022-11-29T12:27:05.112Z,73.75
2022-11-29T12:30:13.593Z,73.40
2022-11-29T12:33:24.011Z,73.43
2022-11-29T12:36:46.761Z,73.55
2022-11-29T12:40:03.533Z,73.74
2022-11-29T12:43:24.958Z,73.77
2022-11-29T12:46:29.080Z,73.43
2022-11-29T12:49:41.169Z,73.24
2022-11-29T12:53:01.498Z,73.09
2022-11-29T12:56:13.568Z,72.99
2022-11-29T12:59:33.227Z,72.97
2022-11-29T13:02:47.245Z,72.15
2022-11-29T13:05:59.306Z,72.73
2022-11-29T13:09:17.954Z,72.63
2022-11-29T13:12:33.004Z,72.62
2022-11-29T13:15:57.884Z,71.94
2022-11-29T13:19:17.828Z,72.71
2022-11-29T13:22:44.150Z,72.56
2022-11-29T13:25:50.861Z,72.57
2022-11-29T13:28:53.493Z,72.34
2022-11-29T13:31:55.074Z,72.09
2022-11-29T13:35:01.796Z,72.11
2022-11-29T13:38:29.528Z,72.51
2022-11-29T13:41:37.672Z,71.47
2022-11-29T13:44:58.901Z,71.91
2022-11-29T13:48:01.901Z,71.46
2022-11-29T13:51:30.296Z,72.31
2022-11-29T13:54:33.703Z,72.25
2022-11-29T13:58:14.453Z,72.54
2022-11-29T14:01:14.340Z,72.56
2022-11-29T14:04:28.081Z,71.93
2022-11-29T14:07:29.527Z,72.28
2022-11-29T14:10:32.709Z,72.68
2022-11-29T14:13:54.961Z,72.22
2022-11-29T14:17:01.672Z,72.35
2022-11-29T14:20:25.283Z,71.91
2022-11-29T14:23:33.524Z,71.98
2022-11-29T14:26:35.103Z,71.97
2022-11-29T14:30:02.755Z,72.26
2022-11-29T14:33:18.502Z,72.18
2022-11-29T14:36:43.597Z,72.27
2022-11-29T14:39:52.649Z,72.13
2022-11-29T14:42:54.351Z,72.88
2022-11-29T14:46:13.777Z,72.60
2022-11-29T14:49:23.553Z,72.96
2022-11-29T14:52:29.151Z,72.78
2022-11-29T14:55:35.246Z,72.88
2022-11-29T14:58:36.733Z,72.64
2022-11-29T15:01:43.882Z,72.51
2022-11-29T15:04:47.892Z,73.11
2022-11-29T15:08:06.466Z,72.97
2022-11-29T15:11:26.069Z,73.02
2022-11-29T15:14:53.888Z,72.57
2022-11-29T15:18:03.384Z,72.33
2022-11-29T15:21:32.543Z,72.29
2022-11-29T15:25:07.103Z,72.10
2022-11-29T15:28:22.569Z,72.33
2022-11-29T15:31:24.250Z,72.88
2022-11-29T15:34:39.729Z,72.89
2022-11-29T15:37:44.541Z,72.71
2022-11-29T15:40:52.802Z,72.34
2022-11-29T15:43:59.802Z,72.40
2022-11-29T15:47:23.675Z,72.39
2022-11-29T15:50:34.138Z,72.70
2022-11-29T15:53:40.975Z,72.41
2022-11-29T15:56:48.706Z,72.99
2022-11-29T15:59:55.251Z,73.08
2022-11-29T16:03:02.029Z,73.02
2022-11-29T16:06:08.978Z,72.60
2022-11-29T16:09:22.732Z,72.63
2022-11-29T16:12:24.525Z,72.43
2022-11-29T16:15:32.719Z,72.55
2022-11-29T16:18:34.733Z,72.60
2022-11-29T16:21:36.290Z,72.78
2022-11-29T16:24:40.419Z,72.45
2022-11-29T16:27:42.741Z,72.67
2022-11-29T16:30:44.092Z,72.49
2022-11-29T16:33:47.443Z,73.02
2022-11-29T16:37:01.187Z,73.13
2022-11-29T16:40:03.094Z,72.85
2022-11-29T16:43:04.558Z,73.04
2022-11-29T16:46:30.074Z,73.06
2022-11-29T16:49:34.964Z,73.27
2022-11-29T16:52:36.396Z,72.94
2022-11-29T16:55:37.783Z,72.68
2022-11-29T16:59:17.068Z,72.49
2022-11-29T17:02:02.242Z,72.88
2022-11-29T17:05:03.904Z,72.89
2022-11-29T17:08:05.603Z,72.89
2022-11-29T17:11:07.101Z,72.89
2022-11-29T17:14:09.453Z,72.71
2022-11-29T17:17:15.654Z,72.93
2022-11-29T17:20:17.180Z,72.74
2022-11-29T17:23:18.631Z,73.25
2022-11-29T17:26:21.880Z,72.95
2022-11-29T17:29:23.598Z,72.97
2022-11-29T17:32:26.859Z,73.42
2022-11-29T17:35:28.629Z,73.12
2022-11-29T17:38:30.045Z,73.33
2022-11-29T17:41:32.654Z,74.20
2022-11-29T17:44:34.247Z,73.73
2022-11-29T17:47:35.684Z,73.55
2022-11-29T17:50:38.186Z,73.70
2022-11-29T17:53:39.615Z,73.23
2022-11-29T17:56:41.033Z,73.17
2022-11-29T17:59:42.474Z,73.16
2022-11-29T18:02:44.053Z,73.23
2022-11-29T18:05:45.511Z,73.13
2022-11-29T18:08:49.292Z,73.15
2022-11-29T18:11:50.888Z,72.96
2022-11-29T18:14:52.330Z,73.03
2022-11-29T18:17:53.736Z,73.46
2022-11-29T18:21:00.106Z,73.63
2022-11-29T18:24:03.675Z,73.69
2022-11-29T18:27:05.209Z,73.82
2022-11-29T18:30:07.415Z,73.88
2022-11-29T18:33:08.825Z,74.13
2022-11-29T18:36:13.282Z,73.78
2022-11-29T18:39:17.365Z,73.82
2022-11-29T18:42:18.800Z,73.41
2022-11-29T18:45:20.253Z,75.15
2022-11-29T18:48:21.766Z,74.80
2022-11-29T18:51:23.143Z,74.06
2022-11-29T18:54:24.632Z,73.64
2022-11-29T18:57:26.046Z,74.58
2022-11-29T19:00:27.469Z,74.50
2022-11-29T19:03:29.050Z,73.54
2022-11-29T19:06:39.295Z,73.63
2022-11-29T19:09:41.516Z,73.63
2022-11-29T19:12:42.981Z,73.90
2022-11-29T19:15:51.395Z,74.09
2022-11-29T19:18:55.409Z,73.97
2022-11-29T19:21:56.824Z,74.21
2022-11-29T19:24:58.284Z,74.05
2022-11-29T19:27:59.670Z,73.91
2022-11-29T19:31:01.135Z,73.73
2022-11-29T19:34:02.578Z,73.77
2022-11-29T19:37:04.396Z,73.71
2022-11-29T19:40:06.606Z,73.95
2022-11-29T19:43:08.042Z,74.32
2022-11-29T19:46:17.611Z,74.16
2022-11-29T19:49:19.030Z,74.17
2022-11-29T19:52:20.455Z,74.16
2022-11-29T19:55:22.710Z,74.51
2022-11-29T19:58:25.087Z,74.77
2022-11-29T20:01:36.088Z,75.20
2022-11-29T20:04:39.303Z,75.02
2022-11-29T20:07:40.768Z,74.53
2022-11-29T20:10:42.206Z,74.44
2022-11-29T20:13:45.676Z,74.56
2022-11-29T20:16:47.107Z,74.19
2022-11-29T20:19:48.849Z,74.53
2022-11-29T20:22:52.323Z,74.68
2022-11-29T20:25:55.238Z,74.43
2022-11-29T20:28:56.709Z,74.51
2022-11-29T20:31:58.378Z,74.68
2022-11-29T20:35:02.319Z,74.40
2022-11-29T20:38:11.634Z,74.07
2022-11-29T20:41:21.777Z,74.15
2022-11-29T20:44:54.069Z,74.41
2022-11-29T20:48:04.307Z,74.36
2022-11-29T20:51:05.975Z,74.02
2022-11-29T20:54:10.580Z,74.07
2022-11-29T20:57:12.088Z,74.58
2022-11-29T21:00:15.527Z,74.27
2022-11-29T21:03:18.613Z,73.98
2022-11-29T21:06:20.491Z,74.18
2022-11-29T21:09:22.228Z,74.07
2022-11-29T21:12:24.047Z,74.07
2022-11-29T21:15:25.870Z,74.09
2022-11-29T21:18:29.041Z,73.92
2022-11-29T21:21:40.131Z,74.39
2022-11-29T21:24:53.194Z,74.57
2022-11-29T21:27:55.165Z,74.72
2022-11-29T21:30:56.979Z,74.98
2022-11-29T21:33:58.792Z,75.25
2022-11-29T21:37:00.655Z,75.23
2022-11-29T21:40:02.088Z,75.34
2022-11-29T21:43:03.508Z,75.50
2022-11-29T21:46:05.059Z,74.67
2022-11-29T21:49:06.658Z,74.89
2022-11-29T21:52:08.066Z,75.05
2022-11-29T21:55:09.768Z,74.50
2022-11-29T21:58:11.161Z,74.30
2022-11-29T22:01:16.861Z,74.71
2022-11-29T22:04:18.629Z,75.10
2022-11-29T22:07:20.076Z,74.90
2022-11-29T22:10:21.508Z,75.06
2022-11-29T22:13:23.017Z,75.04
2022-11-29T22:16:25.197Z,75.07
2022-11-29T22:19:34.620Z,75.24
2022-11-29T22:22:36.055Z,75.17
2022-11-29T22:25:37.478Z,74.55
2022-11-29T22:28:38.863Z,74.37
2022-11-29T22:31:45.359Z,75.10
2022-11-29T22:34:47.012Z,75.45
2022-11-29T22:37:48.556Z,75.35
2022-11-29T22:40:49.934Z,75.32
2022-11-29T22:43:51.589Z,75.19
2022-11-29T22:46:53.224Z,75.36
2022-11-29T22:49:54.770Z,75.00
2022-11-29T22:52:56.169Z,74.88
2022-11-29T22:56:02.428Z,74.50
2022-11-29T22:59:04.665Z,74.70
2022-11-29T23:02:06.100Z,74.35
2022-11-29T23:05:08.021Z,74.19
2022-11-29T23:08:09.440Z,74.66
2022-11-29T23:11:17.508Z,74.88
2022-11-29T23:14:19.779Z,75.07
2022-11-29T23:17:21.133Z,74.94
2022-11-29T23:20:22.673Z,74.88
2022-11-29T23:23:24.243Z,74.88
2022-11-29T23:26:36.417Z,75.28
2022-11-29T23:29:37.836Z,75.16
2022-11-29T23:32:40.764Z,75.08
2022-11-29T23:35:42.303Z,74.70
2022-11-29T23:38:44.026Z,74.55
2022-11-29T23:41:45.449Z,74.62
2022-11-29T23:44:47.105Z,74.51
2022-11-29T23:47:48.710Z,74.52
2022-11-29T23:50:50.124Z,74.48
2022-11-29T23:53:53.063Z,74.09
2022-11-29T23:56:54.470Z,73.82
2022-11-29T23:59:55.862Z,73.64
